Weather at Diosdado Macapagal International Airport

Public forecast

Using degrees Celsius for public forecast. Weather courtesy of forecast.io.

Current aviation weather report (METAR) for Diosdado Macapagal International Airport

Retrieved 2022/05/24 03:00 UTC (55 minutes ago):

RPLC 240300Z 07004KT 7000 SCT020 BKN300 32/25 Q1012 NOSIG RMK A2988

Aviation forecast (TAF) for Diosdado Macapagal International Airport

Retrieved 2022-05-24 00:03 UTC (4 hours ago):

TAF RPLC 232300Z 2400/2506 18006KT 9999 SCT020 BKN300 TX34/2406Z TN24/2421Z TEMPO 2400/2406 14008KT 7000 FEW020 BKN300